Beerse, Belgium
Current Conditions -  °F | °C
As of 12:01 AM on Wednesday 28 Jan 2015 (Local Time) from EHGR Reporting Station
Haze Haze  
Wind Chill: 33°   Ceiling: 3300
Heat Index: 37°   Visibility: 4mi
Dew Point: 37°   Wind: 6mph
Humidity: 100%   Direction: 220°SW
Pressure: 30.15"   Gusts: NA
Location:  51.32°N, 4.85°E
Report Text: EHGR 272301Z AUTO 22005KT 7000 BR FEW005 OVC033 03/03 Q1021 WHT
Loading
Personal Weather Stations






























Interactive Weather Map New forecast layout! Learn more

10-Day Weather Forecast

Advertisements
Track Severe Weather on mobile